createdAt,value
2022-12-25T00:02:18.042Z,8.36
2022-12-25T00:04:46.282Z,8.37
2022-12-25T00:07:14.313Z,8.37
2022-12-25T00:09:42.738Z,8.33
2022-12-25T00:12:10.781Z,8.34
2022-12-25T00:14:38.798Z,8.33
2022-12-25T00:17:06.776Z,8.31
2022-12-25T00:19:34.751Z,8.30
2022-12-25T00:22:02.809Z,8.28
2022-12-25T00:24:31.124Z,8.27
2022-12-25T00:26:59.121Z,8.25
2022-12-25T00:29:27.107Z,8.23
2022-12-25T00:31:55.213Z,8.23
2022-12-25T00:34:23.740Z,8.20
2022-12-25T00:36:51.865Z,8.17
2022-12-25T00:39:19.856Z,8.12
2022-12-25T00:42:06.828Z,8.07
2022-12-25T00:44:34.965Z,8.02
2022-12-25T00:47:03.346Z,7.97
2022-12-25T00:49:31.497Z,7.93
2022-12-25T00:51:59.958Z,7.90
2022-12-25T00:54:27.967Z,7.84
2022-12-25T00:56:56.171Z,7.79
2022-12-25T00:59:24.189Z,7.74
2022-12-25T01:01:52.283Z,7.71
2022-12-25T01:04:20.567Z,7.68
2022-12-25T01:06:48.523Z,7.68
2022-12-25T01:09:34.976Z,7.70
2022-12-25T01:12:03.027Z,7.70
2022-12-25T01:14:31.075Z,7.69
2022-12-25T01:16:59.073Z,7.70
2022-12-25T01:19:27.091Z,7.73
2022-12-25T01:21:55.101Z,7.76
2022-12-25T01:24:23.055Z,7.78
2022-12-25T01:26:51.044Z,7.79
2022-12-25T01:29:19.074Z,7.81
2022-12-25T01:31:47.152Z,7.79
2022-12-25T01:34:15.269Z,7.79
2022-12-25T01:36:43.301Z,7.79
2022-12-25T01:39:11.268Z,7.81
2022-12-25T01:41:39.243Z,7.82
2022-12-25T01:44:19.354Z,7.83
2022-12-25T01:46:47.292Z,7.85
2022-12-25T01:49:20.189Z,7.85
2022-12-25T01:51:58.746Z,7.84
2022-12-25T01:54:31.361Z,7.82
2022-12-25T01:57:01.480Z,7.81
2022-12-25T01:59:29.880Z,7.79
2022-12-25T02:01:58.460Z,7.78
2022-12-25T02:04:39.741Z,7.79
2022-12-25T02:07:16.309Z,7.83
2022-12-25T02:09:45.904Z,7.86
2022-12-25T02:12:17.770Z,7.85
2022-12-25T02:14:46.379Z,7.82
2022-12-25T02:17:17.359Z,7.81
2022-12-25T02:20:07.429Z,7.79
2022-12-25T02:22:55.872Z,7.78
2022-12-25T02:25:43.664Z,7.76
2022-12-25T02:28:36.630Z,7.71
2022-12-25T02:31:13.128Z,7.69
2022-12-25T02:34:03.620Z,7.68
2022-12-25T02:36:39.471Z,7.70
2022-12-25T02:39:50.348Z,7.73
2022-12-25T02:42:24.219Z,7.73
2022-12-25T02:45:11.425Z,7.68
2022-12-25T02:47:58.292Z,7.64
2022-12-25T02:50:45.645Z,7.61
2022-12-25T02:53:32.554Z,7.61
2022-12-25T02:56:19.311Z,7.60
2022-12-25T02:59:06.751Z,7.59
2022-12-25T03:01:55.302Z,7.61
2022-12-25T03:04:44.196Z,7.61
2022-12-25T03:07:16.963Z,7.58
2022-12-25T03:10:11.918Z,7.53
2022-12-25T03:13:05.922Z,7.52
2022-12-25T03:15:54.255Z,7.54
2022-12-25T03:18:24.516Z,7.54
2022-12-25T03:21:11.962Z,7.52
2022-12-25T03:24:01.259Z,7.50
2022-12-25T03:26:48.567Z,7.49
2022-12-25T03:29:36.794Z,7.51
2022-12-25T03:32:08.556Z,7.55
2022-12-25T03:35:23.171Z,7.58
2022-12-25T03:38:09.385Z,7.57
2022-12-25T03:41:08.527Z,7.56
2022-12-25T03:44:12.375Z,7.55
2022-12-25T03:47:07.526Z,7.54
2022-12-25T03:50:02.347Z,7.54
2022-12-25T03:52:49.919Z,7.53
2022-12-25T03:55:38.103Z,7.52
2022-12-25T03:58:38.562Z,7.51
2022-12-25T04:01:25.407Z,7.53
2022-12-25T04:04:12.249Z,7.52
2022-12-25T04:06:59.458Z,7.48
2022-12-25T04:09:46.125Z,7.44
2022-12-25T04:12:32.892Z,7.42
2022-12-25T04:15:19.820Z,7.37
2022-12-25T04:18:06.508Z,7.33
2022-12-25T04:20:53.418Z,7.29
2022-12-25T04:23:40.307Z,7.25
2022-12-25T04:26:26.872Z,7.21
2022-12-25T04:29:13.683Z,7.17
2022-12-25T04:32:11.224Z,7.16
2022-12-25T04:34:57.915Z,7.15
2022-12-25T04:37:26.001Z,7.16
2022-12-25T04:39:53.983Z,7.17
2022-12-25T04:42:21.982Z,7.18
2022-12-25T04:44:50.002Z,7.19
2022-12-25T04:47:18.090Z,7.19
2022-12-25T04:49:46.247Z,7.20
2022-12-25T04:52:14.259Z,7.19
2022-12-25T04:54:42.368Z,7.16
2022-12-25T04:57:10.443Z,7.13
2022-12-25T04:59:38.570Z,7.09
2022-12-25T05:02:06.741Z,7.04
2022-12-25T05:04:34.992Z,7.00
2022-12-25T05:07:03.065Z,6.96
2022-12-25T05:09:31.180Z,6.93
2022-12-25T05:11:59.145Z,6.91
2022-12-25T05:14:27.262Z,6.89
2022-12-25T05:16:55.347Z,6.88
2022-12-25T05:19:23.554Z,6.87
2022-12-25T05:21:51.560Z,6.86
2022-12-25T05:24:22.215Z,6.85
2022-12-25T05:26:50.226Z,6.87
2022-12-25T05:29:18.244Z,6.90
2022-12-25T05:31:46.296Z,6.91
2022-12-25T05:34:14.373Z,6.92
2022-12-25T05:36:42.320Z,6.92
2022-12-25T05:39:10.340Z,6.91
2022-12-25T05:41:38.309Z,6.91
2022-12-25T05:44:06.431Z,6.92
2022-12-25T05:46:34.465Z,6.93
2022-12-25T05:49:03.140Z,6.93
2022-12-25T05:51:31.850Z,6.93
2022-12-25T05:53:59.852Z,6.93
2022-12-25T05:56:27.838Z,6.89
2022-12-25T05:58:56.007Z,6.88
2022-12-25T06:01:28.634Z,6.85
2022-12-25T06:03:57.680Z,6.82
2022-12-25T06:06:25.826Z,6.81
2022-12-25T06:08:55.344Z,6.81
2022-12-25T06:11:23.635Z,6.81
2022-12-25T06:13:52.491Z,6.81
2022-12-25T06:16:20.599Z,6.81
2022-12-25T06:18:52.013Z,6.79
2022-12-25T06:21:20.147Z,6.78
2022-12-25T06:23:48.453Z,6.75
2022-12-25T06:26:18.492Z,6.71
2022-12-25T06:28:47.301Z,6.69
2022-12-25T06:31:17.842Z,6.66
2022-12-25T06:33:46.023Z,6.62
2022-12-25T06:36:25.202Z,6.61
2022-12-25T06:38:53.901Z,6.53
2022-12-25T06:41:24.336Z,6.57
2022-12-25T06:43:57.431Z,6.53
2022-12-25T06:46:27.472Z,6.53
2022-12-25T06:48:55.748Z,6.53
2022-12-25T06:51:25.790Z,6.57
2022-12-25T06:53:54.833Z,6.60
2022-12-25T06:56:27.855Z,6.68
2022-12-25T06:58:58.041Z,6.72
2022-12-25T07:01:38.517Z,6.73
2022-12-25T07:04:10.201Z,6.76
2022-12-25T07:06:38.823Z,6.83
2022-12-25T07:09:06.853Z,6.88
2022-12-25T07:11:34.774Z,6.91
2022-12-25T07:14:02.933Z,6.94
2022-12-25T07:16:30.988Z,6.95
2022-12-25T07:19:02.093Z,6.95
2022-12-25T07:21:30.177Z,6.94
2022-12-25T07:23:58.241Z,6.95
2022-12-25T07:26:26.362Z,6.96
2022-12-25T07:28:55.794Z,7.00
2022-12-25T07:31:23.851Z,7.03
2022-12-25T07:33:54.751Z,7.10
2022-12-25T07:36:22.878Z,7.13
2022-12-25T07:38:51.382Z,7.15
2022-12-25T07:41:19.548Z,7.16
2022-12-25T07:43:51.952Z,7.15
2022-12-25T07:46:21.517Z,7.11
2022-12-25T07:48:50.068Z,7.07
2022-12-25T07:51:18.511Z,7.05
2022-12-25T07:53:47.100Z,7.03
2022-12-25T07:56:17.375Z,7.06
2022-12-25T07:58:45.924Z,7.08
2022-12-25T08:01:16.858Z,7.10
2022-12-25T08:03:52.244Z,7.12
2022-12-25T08:06:22.052Z,7.15
2022-12-25T08:08:50.113Z,7.17
2022-12-25T08:11:18.418Z,7.22
2022-12-25T08:13:46.463Z,7.33
2022-12-25T08:16:14.606Z,7.48
2022-12-25T08:18:43.797Z,7.62
2022-12-25T08:21:13.773Z,7.75
2022-12-25T08:23:43.987Z,7.87
2022-12-25T08:26:14.953Z,7.98
2022-12-25T08:28:43.281Z,8.07
2022-12-25T08:31:15.910Z,8.16
2022-12-25T08:33:46.019Z,8.23
2022-12-25T08:36:14.437Z,8.27
2022-12-25T08:38:42.845Z,8.34
2022-12-25T08:41:11.928Z,8.39
2022-12-25T08:43:40.275Z,8.48
2022-12-25T08:46:09.026Z,8.58
2022-12-25T08:48:37.116Z,8.69
2022-12-25T08:51:08.963Z,8.79
2022-12-25T08:53:37.001Z,8.91
2022-12-25T08:56:05.424Z,9.01
2022-12-25T08:58:34.929Z,9.08
2022-12-25T09:01:03.027Z,9.15
2022-12-25T09:03:34.341Z,9.20
2022-12-25T09:06:05.135Z,9.31
2022-12-25T09:08:33.814Z,9.42
2022-12-25T09:11:04.196Z,9.50
2022-12-25T09:13:32.410Z,9.58
2022-12-25T09:16:00.515Z,9.65
2022-12-25T09:18:28.572Z,9.69
2022-12-25T09:21:00.885Z,9.70
2022-12-25T09:23:29.569Z,9.71
2022-12-25T09:26:05.067Z,9.75
2022-12-25T09:28:33.784Z,9.81
2022-12-25T09:31:02.090Z,9.87
2022-12-25T09:33:30.273Z,9.93
2022-12-25T09:36:06.275Z,9.97
2022-12-25T09:38:35.776Z,9.99
2022-12-25T09:41:17.056Z,10.03
2022-12-25T09:43:54.861Z,10.09
2022-12-25T09:46:30.230Z,10.15
2022-12-25T09:49:32.699Z,10.21
2022-12-25T09:52:05.739Z,10.25
2022-12-25T09:54:45.379Z,10.28
2022-12-25T09:57:14.740Z,10.30
2022-12-25T09:59:44.369Z,10.31
2022-12-25T10:02:27.948Z,10.33
2022-12-25T10:05:13.322Z,10.35
2022-12-25T10:07:50.798Z,10.40
2022-12-25T10:10:37.064Z,10.47
2022-12-25T10:13:20.332Z,10.54
2022-12-25T10:16:05.875Z,10.59
2022-12-25T10:18:44.854Z,10.64
2022-12-25T10:21:15.468Z,10.71
2022-12-25T10:23:49.848Z,10.72
2022-12-25T10:26:20.952Z,10.65
2022-12-25T10:29:19.430Z,10.53
2022-12-25T10:31:50.408Z,10.42
2022-12-25T10:34:18.517Z,10.35
2022-12-25T10:36:47.005Z,10.29
2022-12-25T10:39:19.471Z,10.23
2022-12-25T10:42:09.105Z,10.21
2022-12-25T10:44:37.265Z,10.18
2022-12-25T10:47:05.882Z,10.15
2022-12-25T10:49:37.931Z,10.14
2022-12-25T10:52:25.070Z,10.15
2022-12-25T10:54:53.809Z,10.19
2022-12-25T10:57:23.982Z,10.28
2022-12-25T10:59:57.630Z,10.41
2022-12-25T11:02:27.203Z,10.59
2022-12-25T11:05:05.504Z,10.74
2022-12-25T11:07:35.113Z,10.90
2022-12-25T11:10:16.718Z,11.03
2022-12-25T11:12:45.680Z,11.20
2022-12-25T11:15:35.229Z,11.29
2022-12-25T11:18:24.814Z,11.39
2022-12-25T11:20:53.968Z,11.46
2022-12-25T11:23:23.777Z,11.52
2022-12-25T11:26:06.831Z,11.57
2022-12-25T11:28:38.008Z,11.60
2022-12-25T11:31:09.036Z,11.59
2022-12-25T11:34:00.557Z,11.57
2022-12-25T11:36:45.162Z,11.56
2022-12-25T11:39:14.217Z,11.57
2022-12-25T11:41:43.997Z,11.58
2022-12-25T11:44:27.371Z,11.59
2022-12-25T11:46:56.309Z,11.63
2022-12-25T11:49:24.597Z,11.64
2022-12-25T11:51:54.446Z,11.69
2022-12-25T11:54:30.372Z,11.75
2022-12-25T11:57:00.387Z,11.83
2022-12-25T11:59:35.130Z,11.87
2022-12-25T12:02:40.372Z,11.76
2022-12-25T12:05:33.794Z,11.54
2022-12-25T12:08:04.684Z,11.45
2022-12-25T12:11:17.744Z,11.43
2022-12-25T12:14:10.963Z,11.43
2022-12-25T12:16:39.070Z,11.43
2022-12-25T12:19:36.087Z,11.41
2022-12-25T12:22:04.603Z,11.35
2022-12-25T12:24:39.711Z,11.27
2022-12-25T12:27:10.780Z,11.20
2022-12-25T12:29:44.563Z,11.15
2022-12-25T12:32:35.853Z,11.10
2022-12-25T12:35:18.396Z,11.05
2022-12-25T12:37:50.932Z,10.96
2022-12-25T12:40:25.196Z,10.86
2022-12-25T12:42:53.180Z,10.78
2022-12-25T12:45:27.823Z,10.66
2022-12-25T12:47:56.802Z,10.57
2022-12-25T12:50:33.943Z,10.49
2022-12-25T12:53:18.083Z,10.49
2022-12-25T12:55:46.159Z,10.49
2022-12-25T12:58:35.978Z,10.46
2022-12-25T13:01:19.467Z,10.42
2022-12-25T13:04:25.162Z,10.38
2022-12-25T13:07:03.976Z,10.32
2022-12-25T13:09:49.553Z,10.26
2022-12-25T13:12:18.319Z,10.24
2022-12-25T13:14:47.352Z,10.22
2022-12-25T13:17:19.492Z,10.19
2022-12-25T13:19:50.729Z,10.14
2022-12-25T13:22:37.109Z,10.10
2022-12-25T13:25:09.624Z,10.10
2022-12-25T13:27:37.644Z,10.09
2022-12-25T13:30:19.383Z,10.09
2022-12-25T13:32:47.492Z,9.99
2022-12-25T13:35:16.746Z,9.89
2022-12-25T13:37:45.471Z,9.79
2022-12-25T13:40:26.585Z,9.70
2022-12-25T13:42:58.982Z,9.64
2022-12-25T13:45:31.272Z,9.58
2022-12-25T13:48:10.080Z,9.56
2022-12-25T13:50:38.373Z,9.54
2022-12-25T13:53:16.403Z,9.52
2022-12-25T13:55:48.972Z,9.49
2022-12-25T13:58:24.835Z,9.50
2022-12-25T14:00:54.604Z,9.53
2022-12-25T14:03:37.729Z,9.53
2022-12-25T14:06:16.831Z,9.50
2022-12-25T14:08:45.324Z,9.44
2022-12-25T14:11:14.883Z,9.35
2022-12-25T14:13:44.132Z,9.27
2022-12-25T14:16:16.004Z,9.25
2022-12-25T14:18:52.390Z,9.25
2022-12-25T14:21:29.348Z,9.21
2022-12-25T14:23:57.778Z,9.15
2022-12-25T14:26:28.835Z,9.08
2022-12-25T14:29:05.905Z,9.01
2022-12-25T14:31:34.612Z,8.92
2022-12-25T14:34:05.729Z,8.86
2022-12-25T14:36:34.450Z,8.82
2022-12-25T14:39:05.816Z,8.78
2022-12-25T14:41:38.934Z,8.75
2022-12-25T14:44:34.757Z,8.71
2022-12-25T14:47:12.707Z,8.62
2022-12-25T14:49:41.064Z,8.55
2022-12-25T14:52:16.371Z,8.53
2022-12-25T14:54:46.973Z,8.50
2022-12-25T14:57:24.060Z,8.45
2022-12-25T14:59:57.062Z,8.43
2022-12-25T15:02:25.828Z,8.42
2022-12-25T15:04:54.161Z,8.42
2022-12-25T15:07:30.869Z,8.44
2022-12-25T15:10:27.015Z,8.45
2022-12-25T15:12:46.926Z,8.46
2022-12-25T15:15:15.274Z,8.44
2022-12-25T15:17:43.379Z,8.40
2022-12-25T15:20:14.540Z,8.35
2022-12-25T15:23:10.131Z,8.28
2022-12-25T15:25:31.682Z,8.23
2022-12-25T15:27:59.675Z,8.17
2022-12-25T15:30:27.713Z,8.13
2022-12-25T15:32:55.749Z,8.09
2022-12-25T15:35:23.711Z,8.07
2022-12-25T15:37:51.782Z,8.06
2022-12-25T15:40:21.499Z,8.02
2022-12-25T15:42:50.314Z,7.99
2022-12-25T15:45:24.407Z,7.96
2022-12-25T15:47:52.567Z,7.94
2022-12-25T15:50:22.100Z,7.88
2022-12-25T15:52:50.541Z,7.81
2022-12-25T15:55:18.476Z,7.77
2022-12-25T15:57:48.545Z,7.74
2022-12-25T16:00:22.729Z,7.74
2022-12-25T16:02:50.906Z,7.71
2022-12-25T16:05:19.350Z,7.67
2022-12-25T16:07:47.468Z,7.60
2022-12-25T16:10:18.238Z,7.57
2022-12-25T16:12:46.759Z,7.53
2022-12-25T16:15:16.005Z,7.49
2022-12-25T16:17:44.147Z,7.43
2022-12-25T16:20:12.528Z,7.38
2022-12-25T16:22:40.398Z,7.34
2022-12-25T16:25:15.122Z,7.27
2022-12-25T16:27:43.771Z,7.24
2022-12-25T16:30:14.299Z,7.24
2022-12-25T16:32:42.602Z,7.25
2022-12-25T16:35:11.856Z,7.27
2022-12-25T16:37:39.928Z,7.29
2022-12-25T16:40:09.724Z,7.30
2022-12-25T16:42:38.352Z,7.30
2022-12-25T16:45:06.955Z,7.28
2022-12-25T16:47:35.136Z,7.21
2022-12-25T16:50:04.592Z,7.18
2022-12-25T16:52:34.789Z,7.17
2022-12-25T16:55:03.429Z,7.12
2022-12-25T16:57:32.695Z,7.02
2022-12-25T17:00:00.699Z,6.95
2022-12-25T17:02:29.486Z,6.89
2022-12-25T17:04:57.798Z,6.81
2022-12-25T17:07:25.901Z,6.74
2022-12-25T17:09:54.027Z,6.68
2022-12-25T17:12:21.993Z,6.64
2022-12-25T17:14:50.062Z,6.61
2022-12-25T17:17:18.071Z,6.56
2022-12-25T17:19:46.124Z,6.49
2022-12-25T17:22:14.189Z,6.43
2022-12-25T17:24:42.227Z,6.37
2022-12-25T17:27:10.679Z,6.31
2022-12-25T17:29:41.256Z,6.26
2022-12-25T17:32:10.468Z,6.22
2022-12-25T17:34:38.802Z,6.21
2022-12-25T17:37:06.849Z,6.16
2022-12-25T17:39:34.916Z,6.11
2022-12-25T17:42:03.154Z,6.06
2022-12-25T17:44:31.840Z,6.02
2022-12-25T17:47:00.304Z,5.99
2022-12-25T17:49:28.604Z,5.95
2022-12-25T17:51:56.703Z,5.88
2022-12-25T17:54:24.764Z,5.84
2022-12-25T17:56:52.720Z,5.80
2022-12-25T17:59:28.443Z,5.76
2022-12-25T18:01:56.803Z,5.69
2022-12-25T18:04:24.829Z,5.63
2022-12-25T18:06:53.009Z,5.54
2022-12-25T18:09:21.077Z,5.47
2022-12-25T18:11:49.196Z,5.37
2022-12-25T18:14:17.402Z,5.31
2022-12-25T18:16:45.870Z,5.24
2022-12-25T18:19:14.654Z,5.19
2022-12-25T18:21:42.949Z,5.18
2022-12-25T18:24:12.065Z,5.23
2022-12-25T18:26:40.136Z,5.27
2022-12-25T18:29:08.157Z,5.27
2022-12-25T18:31:36.643Z,5.25
2022-12-25T18:34:04.815Z,5.15
2022-12-25T18:36:33.238Z,5.03
2022-12-25T18:39:01.249Z,4.96
2022-12-25T18:41:30.432Z,4.86
2022-12-25T18:43:59.871Z,4.79
2022-12-25T18:46:28.632Z,4.71
2022-12-25T18:48:57.455Z,4.66
2022-12-25T18:51:31.304Z,4.59
2022-12-25T18:54:04.639Z,4.52
2022-12-25T18:56:32.684Z,4.48
2022-12-25T18:59:01.165Z,4.43
2022-12-25T19:01:29.531Z,4.40
2022-12-25T19:04:04.519Z,4.39
2022-12-25T19:06:34.015Z,4.37
2022-12-25T19:09:11.551Z,4.35
2022-12-25T19:11:46.084Z,4.34
2022-12-25T19:14:15.548Z,4.31
2022-12-25T19:16:44.386Z,4.28
2022-12-25T19:19:13.195Z,4.23
2022-12-25T19:21:41.900Z,4.22
2022-12-25T19:24:10.230Z,4.22
2022-12-25T19:26:38.410Z,4.20
2022-12-25T19:29:06.527Z,4.19
2022-12-25T19:31:35.110Z,4.18
2022-12-25T19:34:03.391Z,4.18
2022-12-25T19:36:32.582Z,4.18
2022-12-25T19:39:00.882Z,4.19
2022-12-25T19:41:30.054Z,4.18
2022-12-25T19:43:58.429Z,4.13
2022-12-25T19:46:31.907Z,4.06
2022-12-25T19:49:04.472Z,4.04
2022-12-25T19:51:38.510Z,4.01
2022-12-25T19:54:07.100Z,3.95
2022-12-25T19:56:35.229Z,3.88
2022-12-25T19:59:03.402Z,3.80
2022-12-25T20:01:31.728Z,3.74
2022-12-25T20:04:00.007Z,3.69
2022-12-25T20:06:31.054Z,3.64
2022-12-25T20:09:01.768Z,3.60
2022-12-25T20:11:31.683Z,3.60
2022-12-25T20:14:00.936Z,3.61
2022-12-25T20:16:29.398Z,3.62
2022-12-25T20:18:57.775Z,3.65
2022-12-25T20:21:30.136Z,3.64
2022-12-25T20:23:58.557Z,3.64
2022-12-25T20:26:29.429Z,3.64
2022-12-25T20:28:58.609Z,3.62
2022-12-25T20:31:32.126Z,3.60
2022-12-25T20:34:05.116Z,3.53
2022-12-25T20:36:37.296Z,3.45
2022-12-25T20:39:09.863Z,3.33
2022-12-25T20:41:40.592Z,3.24
2022-12-25T20:44:10.428Z,3.18
2022-12-25T20:46:38.780Z,3.12
2022-12-25T20:49:06.953Z,3.07
2022-12-25T20:51:35.900Z,3.04
2022-12-25T20:54:09.510Z,3.03
2022-12-25T20:56:37.616Z,3.03
2022-12-25T20:59:05.625Z,3.01
2022-12-25T21:01:33.875Z,3.01
2022-12-25T21:04:02.175Z,3.01
2022-12-25T21:06:30.349Z,3.00
2022-12-25T21:08:58.448Z,2.99
2022-12-25T21:11:26.721Z,2.96
2022-12-25T21:13:54.811Z,2.94
2022-12-25T21:16:24.050Z,2.93
2022-12-25T21:18:53.602Z,2.94
2022-12-25T21:21:22.329Z,2.97
2022-12-25T21:23:50.453Z,3.00
2022-12-25T21:26:21.200Z,3.06
2022-12-25T21:28:51.018Z,3.12
2022-12-25T21:31:20.507Z,3.12
2022-12-25T21:33:51.695Z,3.12
2022-12-25T21:36:35.831Z,3.13
2022-12-25T21:39:06.276Z,3.10
2022-12-25T21:41:36.697Z,3.08
2022-12-25T21:44:05.317Z,3.04
2022-12-25T21:46:33.461Z,2.94
2022-12-25T21:49:01.589Z,2.89
2022-12-25T21:51:51.103Z,2.85
2022-12-25T21:54:20.728Z,2.80
2022-12-25T21:56:49.107Z,2.76
2022-12-25T21:59:19.363Z,2.74
2022-12-25T22:01:47.934Z,2.73
2022-12-25T22:04:17.168Z,2.73
2022-12-25T22:07:05.332Z,2.69
2022-12-25T22:09:33.420Z,2.63
2022-12-25T22:12:20.279Z,2.59
2022-12-25T22:14:56.605Z,2.54
2022-12-25T22:17:46.787Z,2.50
2022-12-25T22:20:20.449Z,2.47
2022-12-25T22:22:49.165Z,2.44
2022-12-25T22:25:18.101Z,2.41
2022-12-25T22:27:47.672Z,2.37
2022-12-25T22:30:18.665Z,2.35
2022-12-25T22:32:47.530Z,2.41
2022-12-25T22:35:17.613Z,2.46
2022-12-25T22:37:46.141Z,2.50
2022-12-25T22:40:17.289Z,2.54
2022-12-25T22:42:45.452Z,2.59
2022-12-25T22:45:14.261Z,2.61
2022-12-25T22:47:42.380Z,2.52
2022-12-25T22:50:11.937Z,2.48
2022-12-25T22:52:40.600Z,2.45
2022-12-25T22:55:10.141Z,2.38
2022-12-25T22:57:38.340Z,2.24
2022-12-25T23:00:08.946Z,2.17
2022-12-25T23:02:37.365Z,2.12
2022-12-25T23:05:05.845Z,2.09
2022-12-25T23:07:33.953Z,2.05
2022-12-25T23:10:01.980Z,2.05
2022-12-25T23:12:48.775Z,2.07
2022-12-25T23:15:17.066Z,2.11
2022-12-25T23:18:03.850Z,2.09
2022-12-25T23:20:51.317Z,2.02
2022-12-25T23:23:38.050Z,1.89
2022-12-25T23:26:09.044Z,1.75
2022-12-25T23:28:59.758Z,1.66
2022-12-25T23:31:33.889Z,1.61
2022-12-25T23:34:03.753Z,1.58
2022-12-25T23:36:32.493Z,1.57
2022-12-25T23:39:08.664Z,1.55
2022-12-25T23:41:40.068Z,1.48
2022-12-25T23:44:09.465Z,1.46
2022-12-25T23:46:37.649Z,1.42
2022-12-25T23:49:06.539Z,1.36
2022-12-25T23:51:38.828Z,1.33
2022-12-25T23:54:07.106Z,1.32
2022-12-25T23:56:35.403Z,1.33
2022-12-25T23:59:05.602Z,1.28
